sensor_id;sensor_type;location;lat;lon;timestamp;temperature;humidity
36654;DHT22;22650;49.350;20.898;2022-09-01T00:00:24;12.40;99.90
36654;DHT22;22650;49.350;20.898;2022-09-01T00:03:00;12.30;99.90
36654;DHT22;22650;49.350;20.898;2022-09-01T00:05:33;12.30;99.90
36654;DHT22;22650;49.350;20.898;2022-09-01T00:08:07;12.30;99.90
36654;DHT22;22650;49.350;20.898;2022-09-01T00:10:40;12.30;99.90
36654;DHT22;22650;49.350;20.898;2022-09-01T00:13:16;12.30;99.90
36654;DHT22;22650;49.350;20.898;2022-09-01T00:15:49;12.20;99.90
36654;DHT22;22650;49.350;20.898;2022-09-01T00:18:23;12.20;99.90
36654;DHT22;22650;49.350;20.898;2022-09-01T00:20:57;12.20;99.90
36654;DHT22;22650;49.350;20.898;2022-09-01T00:23:31;12.20;99.90
36654;DHT22;22650;49.350;20.898;2022-09-01T00:26:05;12.20;99.90
36654;DHT22;22650;49.350;20.898;2022-09-01T00:28:40;12.10;99.90
36654;DHT22;22650;49.350;20.898;2022-09-01T00:31:13;12.10;99.90
36654;DHT22;22650;49.350;20.898;2022-09-01T00:33:48;12.10;99.90
36654;DHT22;22650;49.350;20.898;2022-09-01T00:36:22;12.10;99.90
36654;DHT22;22650;49.350;20.898;2022-09-01T00:38:56;12.00;99.90
36654;DHT22;22650;49.350;20.898;2022-09-01T00:41:32;12.00;99.90
36654;DHT22;22650;49.350;20.898;2022-09-01T00:44:09;12.00;99.90
36654;DHT22;22650;49.350;20.898;2022-09-01T00:46:46;12.00;99.90
36654;DHT22;22650;49.350;20.898;2022-09-01T00:49:29;12.00;99.90
36654;DHT22;22650;49.350;20.898;2022-09-01T00:52:09;12.00;99.90
36654;DHT22;22650;49.350;20.898;2022-09-01T00:54:45;12.00;99.90
36654;DHT22;22650;49.350;20.898;2022-09-01T00:57:20;11.90;99.90
36654;DHT22;22650;49.350;20.898;2022-09-01T00:59:58;11.90;99.90
36654;DHT22;22650;49.350;20.898;2022-09-01T01:02:32;11.90;99.90
36654;DHT22;22650;49.350;20.898;2022-09-01T01:05:08;11.90;99.90
36654;DHT22;22650;49.350;20.898;2022-09-01T01:07:46;11.90;99.90
36654;DHT22;22650;49.350;20.898;2022-09-01T01:10:20;11.90;99.90
36654;DHT22;22650;49.350;20.898;2022-09-01T01:12:56;11.90;99.90
36654;DHT22;22650;49.350;20.898;2022-09-01T01:15:34;11.90;99.90
36654;DHT22;22650;49.350;20.898;2022-09-01T01:18:09;11.90;99.90
36654;DHT22;22650;49.350;20.898;2022-09-01T01:20:43;11.90;99.90
36654;DHT22;22650;49.350;20.898;2022-09-01T01:23:39;11.90;99.90
36654;DHT22;22650;49.350;20.898;2022-09-01T01:26:15;11.90;99.90
36654;DHT22;22650;49.350;20.898;2022-09-01T01:28:49;11.90;99.90
36654;DHT22;22650;49.350;20.898;2022-09-01T01:31:27;11.90;99.90
36654;DHT22;22650;49.350;20.898;2022-09-01T01:34:00;11.90;99.90
36654;DHT22;22650;49.350;20.898;2022-09-01T01:36:37;11.90;99.90
36654;DHT22;22650;49.350;20.898;2022-09-01T01:39:20;11.90;99.90
36654;DHT22;22650;49.350;20.898;2022-09-01T01:41:57;11.90;99.90
36654;DHT22;22650;49.350;20.898;2022-09-01T01:44:31;11.90;99.90
36654;DHT22;22650;49.350;20.898;2022-09-01T01:47:07;11.90;99.90
36654;DHT22;22650;49.350;20.898;2022-09-01T01:49:44;11.90;99.90
36654;DHT22;22650;49.350;20.898;2022-09-01T01:52:17;11.90;99.90
36654;DHT22;22650;49.350;20.898;2022-09-01T01:54:57;11.90;99.90
36654;DHT22;22650;49.350;20.898;2022-09-01T01:57:38;11.90;99.90
36654;DHT22;22650;49.350;20.898;2022-09-01T02:00:22;11.90;99.90
36654;DHT22;22650;49.350;20.898;2022-09-01T02:03:01;11.90;99.90
36654;DHT22;22650;49.350;20.898;2022-09-01T02:05:36;11.90;99.90
36654;DHT22;22650;49.350;20.898;2022-09-01T02:08:10;11.90;99.90
36654;DHT22;22650;49.350;20.898;2022-09-01T02:10:46;11.80;99.90
36654;DHT22;22650;49.350;20.898;2022-09-01T02:13:23;11.80;99.90
36654;DHT22;22650;49.350;20.898;2022-09-01T02:16:05;11.80;99.90
36654;DHT22;22650;49.350;20.898;2022-09-01T02:18:45;11.80;99.90
36654;DHT22;22650;49.350;20.898;2022-09-01T02:21:21;11.80;99.90
36654;DHT22;22650;49.350;20.898;2022-09-01T02:23:58;11.80;99.90
36654;DHT22;22650;49.350;20.898;2022-09-01T02:26:36;11.80;99.90
36654;DHT22;22650;49.350;20.898;2022-09-01T02:29:14;11.70;99.90
36654;DHT22;22650;49.350;20.898;2022-09-01T02:31:51;11.70;99.90
36654;DHT22;22650;49.350;20.898;2022-09-01T02:34:26;11.70;99.90
36654;DHT22;22650;49.350;20.898;2022-09-01T02:36:59;11.70;99.90
36654;DHT22;22650;49.350;20.898;2022-09-01T02:39:33;11.70;99.90
36654;DHT22;22650;49.350;20.898;2022-09-01T02:42:07;11.70;99.90
36654;DHT22;22650;49.350;20.898;2022-09-01T02:44:43;11.70;99.90
36654;DHT22;22650;49.350;20.898;2022-09-01T02:47:16;11.70;99.90
36654;DHT22;22650;49.350;20.898;2022-09-01T02:49:50;11.70;99.90
36654;DHT22;22650;49.350;20.898;2022-09-01T02:52:24;11.70;99.90
36654;DHT22;22650;49.350;20.898;2022-09-01T02:54:59;11.70;99.90
36654;DHT22;22650;49.350;20.898;2022-09-01T02:57:34;11.70;99.90
36654;DHT22;22650;49.350;20.898;2022-09-01T03:00:10;11.70;99.90
36654;DHT22;22650;49.350;20.898;2022-09-01T03:02:52;11.70;99.90
36654;DHT22;22650;49.350;20.898;2022-09-01T03:05:27;11.70;99.90
36654;DHT22;22650;49.350;20.898;2022-09-01T03:08:03;11.70;99.90
36654;DHT22;22650;49.350;20.898;2022-09-01T03:10:43;11.70;99.90
36654;DHT22;22650;49.350;20.898;2022-09-01T03:13:20;11.70;99.90
36654;DHT22;22650;49.350;20.898;2022-09-01T03:15:56;11.70;99.90
36654;DHT22;22650;49.350;20.898;2022-09-01T03:18:29;11.70;99.90
36654;DHT22;22650;49.350;20.898;2022-09-01T03:21:04;11.70;99.90
36654;DHT22;22650;49.350;20.898;2022-09-01T03:23:38;11.70;99.90
36654;DHT22;22650;49.350;20.898;2022-09-01T03:26:12;11.60;99.90
36654;DHT22;22650;49.350;20.898;2022-09-01T03:28:47;11.60;99.90
36654;DHT22;22650;49.350;20.898;2022-09-01T03:31:22;11.60;99.90
36654;DHT22;22650;49.350;20.898;2022-09-01T03:34:03;11.60;99.90
36654;DHT22;22650;49.350;20.898;2022-09-01T03:36:42;11.60;99.90
36654;DHT22;22650;49.350;20.898;2022-09-01T03:39:31;11.50;99.90
36654;DHT22;22650;49.350;20.898;2022-09-01T03:42:05;11.50;99.90
36654;DHT22;22650;49.350;20.898;2022-09-01T03:44:41;11.40;99.90
36654;DHT22;22650;49.350;20.898;2022-09-01T03:47:20;11.40;99.90
36654;DHT22;22650;49.350;20.898;2022-09-01T03:49:55;11.40;99.90
36654;DHT22;22650;49.350;20.898;2022-09-01T03:52:31;11.30;99.90
36654;DHT22;22650;49.350;20.898;2022-09-01T03:55:06;11.30;99.90
36654;DHT22;22650;49.350;20.898;2022-09-01T03:57:41;11.20;99.90
36654;DHT22;22650;49.350;20.898;2022-09-01T04:00:14;11.20;99.90
36654;DHT22;22650;49.350;20.898;2022-09-01T04:02:53;11.10;99.90
36654;DHT22;22650;49.350;20.898;2022-09-01T04:05:31;11.10;99.90
36654;DHT22;22650;49.350;20.898;2022-09-01T04:08:07;11.00;99.90
36654;DHT22;22650;49.350;20.898;2022-09-01T04:10:45;10.90;99.90
36654;DHT22;22650;49.350;20.898;2022-09-01T04:13:27;10.90;99.90
36654;DHT22;22650;49.350;20.898;2022-09-01T04:16:02;10.90;99.90
36654;DHT22;22650;49.350;20.898;2022-09-01T04:18:43;10.80;99.90
36654;DHT22;22650;49.350;20.898;2022-09-01T04:21:20;10.70;99.90
36654;DHT22;22650;49.350;20.898;2022-09-01T04:23:53;10.70;99.90
36654;DHT22;22650;49.350;20.898;2022-09-01T04:26:37;10.60;99.90
36654;DHT22;22650;49.350;20.898;2022-09-01T04:29:12;10.60;99.90
36654;DHT22;22650;49.350;20.898;2022-09-01T04:31:45;10.50;99.90
36654;DHT22;22650;49.350;20.898;2022-09-01T04:34:26;10.50;99.90
36654;DHT22;22650;49.350;20.898;2022-09-01T04:37:00;10.40;99.90
36654;DHT22;22650;49.350;20.898;2022-09-01T04:39:35;10.40;99.90
36654;DHT22;22650;49.350;20.898;2022-09-01T04:42:10;10.40;99.90
36654;DHT22;22650;49.350;20.898;2022-09-01T04:44:44;10.40;99.90
36654;DHT22;22650;49.350;20.898;2022-09-01T04:47:18;10.40;99.90
36654;DHT22;22650;49.350;20.898;2022-09-01T04:50:10;10.40;99.90
36654;DHT22;22650;49.350;20.898;2022-09-01T04:53:08;10.30;99.90
36654;DHT22;22650;49.350;20.898;2022-09-01T04:55:46;10.40;99.90
36654;DHT22;22650;49.350;20.898;2022-09-01T04:58:23;10.40;99.90
36654;DHT22;22650;49.350;20.898;2022-09-01T05:00:58;10.40;99.90
36654;DHT22;22650;49.350;20.898;2022-09-01T05:03:39;10.30;99.90
36654;DHT22;22650;49.350;20.898;2022-09-01T05:06:23;10.30;99.90
36654;DHT22;22650;49.350;20.898;2022-09-01T05:09:02;10.30;99.90
36654;DHT22;22650;49.350;20.898;2022-09-01T05:12:05;10.30;99.90
36654;DHT22;22650;49.350;20.898;2022-09-01T05:14:49;10.30;99.90
36654;DHT22;22650;49.350;20.898;2022-09-01T05:17:25;10.30;99.90
36654;DHT22;22650;49.350;20.898;2022-09-01T05:20:00;10.30;99.90
36654;DHT22;22650;49.350;20.898;2022-09-01T05:22:35;10.30;99.90
36654;DHT22;22650;49.350;20.898;2022-09-01T05:25:12;10.30;99.90
36654;DHT22;22650;49.350;20.898;2022-09-01T05:27:48;10.30;99.90
36654;DHT22;22650;49.350;20.898;2022-09-01T05:30:25;10.30;99.90
36654;DHT22;22650;49.350;20.898;2022-09-01T05:32:59;10.30;99.90
36654;DHT22;22650;49.350;20.898;2022-09-01T05:35:33;10.30;99.90
36654;DHT22;22650;49.350;20.898;2022-09-01T05:38:10;10.40;99.90
36654;DHT22;22650;49.350;20.898;2022-09-01T05:40:54;10.30;99.90
36654;DHT22;22650;49.350;20.898;2022-09-01T05:43:29;10.40;99.90
36654;DHT22;22650;49.350;20.898;2022-09-01T05:46:06;10.40;99.90
36654;DHT22;22650;49.350;20.898;2022-09-01T05:48:41;10.40;99.90
36654;DHT22;22650;49.350;20.898;2022-09-01T05:51:16;10.50;99.90
36654;DHT22;22650;49.350;20.898;2022-09-01T05:54:12;10.50;99.90
36654;DHT22;22650;49.350;20.898;2022-09-01T05:56:46;10.60;99.90
36654;DHT22;22650;49.350;20.898;2022-09-01T05:59:24;10.60;99.90
36654;DHT22;22650;49.350;20.898;2022-09-01T06:02:04;10.60;99.90
36654;DHT22;22650;49.350;20.898;2022-09-01T06:04:40;10.70;99.90
36654;DHT22;22650;49.350;20.898;2022-09-01T06:07:20;10.70;99.90
36654;DHT22;22650;49.350;20.898;2022-09-01T06:09:59;10.80;99.90
36654;DHT22;22650;49.350;20.898;2022-09-01T06:12:33;10.90;99.90
36654;DHT22;22650;49.350;20.898;2022-09-01T06:15:07;11.00;99.90
36654;DHT22;22650;49.350;20.898;2022-09-01T06:17:49;11.10;99.90
36654;DHT22;22650;49.350;20.898;2022-09-01T06:20:27;11.30;99.90
36654;DHT22;22650;49.350;20.898;2022-09-01T06:23:01;11.40;99.90
36654;DHT22;22650;49.350;20.898;2022-09-01T06:25:37;11.60;99.90
36654;DHT22;22650;49.350;20.898;2022-09-01T06:28:11;11.80;99.90
36654;DHT22;22650;49.350;20.898;2022-09-01T06:30:46;11.90;99.90
36654;DHT22;22650;49.350;20.898;2022-09-01T06:33:20;12.00;99.90
36654;DHT22;22650;49.350;20.898;2022-09-01T06:35:56;12.20;99.90
36654;DHT22;22650;49.350;20.898;2022-09-01T06:38:34;12.30;99.90
36654;DHT22;22650;49.350;20.898;2022-09-01T06:41:10;12.40;99.90
36654;DHT22;22650;49.350;20.898;2022-09-01T06:43:45;12.50;99.90
36654;DHT22;22650;49.350;20.898;2022-09-01T06:46:18;12.60;99.90
36654;DHT22;22650;49.350;20.898;2022-09-01T06:48:52;12.70;99.90
36654;DHT22;22650;49.350;20.898;2022-09-01T06:51:30;12.70;99.90
36654;DHT22;22650;49.350;20.898;2022-09-01T06:54:05;12.90;99.90
36654;DHT22;22650;49.350;20.898;2022-09-01T06:56:47;13.00;99.90
36654;DHT22;22650;49.350;20.898;2022-09-01T06:59:27;13.10;99.90
36654;DHT22;22650;49.350;20.898;2022-09-01T07:02:22;13.10;99.90
36654;DHT22;22650;49.350;20.898;2022-09-01T07:05:22;13.30;99.90
36654;DHT22;22650;49.350;20.898;2022-09-01T07:08:16;13.40;99.90
36654;DHT22;22650;49.350;20.898;2022-09-01T07:11:16;13.50;99.90
36654;DHT22;22650;49.350;20.898;2022-09-01T07:14:21;13.70;99.90
36654;DHT22;22650;49.350;20.898;2022-09-01T07:16:55;13.80;99.90
36654;DHT22;22650;49.350;20.898;2022-09-01T07:19:49;13.90;99.90
36654;DHT22;22650;49.350;20.898;2022-09-01T07:22:23;14.10;99.90
36654;DHT22;22650;49.350;20.898;2022-09-01T07:25:09;14.20;99.90
36654;DHT22;22650;49.350;20.898;2022-09-01T07:28:04;14.40;99.90
36654;DHT22;22650;49.350;20.898;2022-09-01T07:30:42;14.50;99.90
36654;DHT22;22650;49.350;20.898;2022-09-01T07:33:22;14.70;99.90
36654;DHT22;22650;49.350;20.898;2022-09-01T07:36:17;14.80;99.90
36654;DHT22;22650;49.350;20.898;2022-09-01T07:38:59;15.00;99.90
36654;DHT22;22650;49.350;20.898;2022-09-01T07:42:10;15.20;99.90
36654;DHT22;22650;49.350;20.898;2022-09-01T07:45:22;15.40;99.90
36654;DHT22;22650;49.350;20.898;2022-09-01T07:48:06;15.50;99.90
36654;DHT22;22650;49.350;20.898;2022-09-01T07:50:51;15.70;99.90
36654;DHT22;22650;49.350;20.898;2022-09-01T07:53:46;15.80;99.90
36654;DHT22;22650;49.350;20.898;2022-09-01T07:56:23;15.90;99.90
36654;DHT22;22650;49.350;20.898;2022-09-01T07:58:57;16.20;99.90
36654;DHT22;22650;49.350;20.898;2022-09-01T08:01:31;16.30;99.90
36654;DHT22;22650;49.350;20.898;2022-09-01T08:04:06;16.60;99.90
36654;DHT22;22650;49.350;20.898;2022-09-01T08:06:40;16.90;99.90
36654;DHT22;22650;49.350;20.898;2022-09-01T08:09:14;17.10;99.90
36654;DHT22;22650;49.350;20.898;2022-09-01T08:12:04;17.40;99.90
36654;DHT22;22650;49.350;20.898;2022-09-01T08:14:43;17.60;99.90
36654;DHT22;22650;49.350;20.898;2022-09-01T08:17:17;17.80;99.90
36654;DHT22;22650;49.350;20.898;2022-09-01T08:20:16;18.10;99.90
36654;DHT22;22650;49.350;20.898;2022-09-01T08:22:53;18.30;99.90
36654;DHT22;22650;49.350;20.898;2022-09-01T08:25:39;18.60;99.90
36654;DHT22;22650;49.350;20.898;2022-09-01T08:28:14;18.90;99.90
36654;DHT22;22650;49.350;20.898;2022-09-01T08:30:58;19.20;99.90
36654;DHT22;22650;49.350;20.898;2022-09-01T08:33:32;19.40;99.90
36654;DHT22;22650;49.350;20.898;2022-09-01T08:36:09;19.70;99.90
36654;DHT22;22650;49.350;20.898;2022-09-01T08:38:43;20.00;99.90
36654;DHT22;22650;49.350;20.898;2022-09-01T08:41:18;20.30;99.90
36654;DHT22;22650;49.350;20.898;2022-09-01T08:44:04;20.60;99.90
36654;DHT22;22650;49.350;20.898;2022-09-01T08:46:42;20.80;99.90
36654;DHT22;22650;49.350;20.898;2022-09-01T08:49:20;20.90;99.90
36654;DHT22;22650;49.350;20.898;2022-09-01T08:52:29;21.20;99.90
36654;DHT22;22650;49.350;20.898;2022-09-01T08:55:11;21.30;98.90
36654;DHT22;22650;49.350;20.898;2022-09-01T08:57:47;21.40;97.20
36654;DHT22;22650;49.350;20.898;2022-09-01T09:00:38;21.60;97.00
36654;DHT22;22650;49.350;20.898;2022-09-01T09:03:26;21.80;95.60
36654;DHT22;22650;49.350;20.898;2022-09-01T09:06:22;22.00;95.60
36654;DHT22;22650;49.350;20.898;2022-09-01T09:08:59;22.10;94.90
36654;DHT22;22650;49.350;20.898;2022-09-01T09:12:00;22.20;93.90
36654;DHT22;22650;49.350;20.898;2022-09-01T09:14:54;22.30;93.00
36654;DHT22;22650;49.350;20.898;2022-09-01T09:17:32;22.30;91.40
36654;DHT22;22650;49.350;20.898;2022-09-01T09:20:07;22.30;92.10
36654;DHT22;22650;49.350;20.898;2022-09-01T09:22:42;22.30;92.10
36654;DHT22;22650;49.350;20.898;2022-09-01T09:25:20;22.40;93.00
36654;DHT22;22650;49.350;20.898;2022-09-01T09:27:55;22.50;92.60
36654;DHT22;22650;49.350;20.898;2022-09-01T09:30:32;22.70;91.80
36654;DHT22;22650;49.350;20.898;2022-09-01T09:33:07;22.70;90.80
36654;DHT22;22650;49.350;20.898;2022-09-01T09:36:16;22.80;90.60
36654;DHT22;22650;49.350;20.898;2022-09-01T09:39:08;22.50;86.30
36654;DHT22;22650;49.350;20.898;2022-09-01T09:42:04;22.30;86.30
36654;DHT22;22650;49.350;20.898;2022-09-01T09:44:42;22.20;90.50
36654;DHT22;22650;49.350;20.898;2022-09-01T09:47:36;22.20;89.50
36654;DHT22;22650;49.350;20.898;2022-09-01T09:50:21;22.50;89.60
36654;DHT22;22650;49.350;20.898;2022-09-01T09:53:11;22.80;89.80
36654;DHT22;22650;49.350;20.898;2022-09-01T09:55:53;22.90;88.00
36654;DHT22;22650;49.350;20.898;2022-09-01T09:58:37;23.00;85.60
36654;DHT22;22650;49.350;20.898;2022-09-01T10:01:13;22.80;84.80
36654;DHT22;22650;49.350;20.898;2022-09-01T10:03:50;22.70;85.40
36654;DHT22;22650;49.350;20.898;2022-09-01T10:06:32;22.60;84.90
36654;DHT22;22650;49.350;20.898;2022-09-01T10:09:14;22.70;87.60
36654;DHT22;22650;49.350;20.898;2022-09-01T10:11:51;22.90;85.30
36654;DHT22;22650;49.350;20.898;2022-09-01T10:14:34;23.20;86.00
36654;DHT22;22650;49.350;20.898;2022-09-01T10:17:29;23.50;87.90
36654;DHT22;22650;49.350;20.898;2022-09-01T10:20:12;23.50;84.80
36654;DHT22;22650;49.350;20.898;2022-09-01T10:22:46;23.40;81.30
36654;DHT22;22650;49.350;20.898;2022-09-01T10:25:23;23.50;84.80
36654;DHT22;22650;49.350;20.898;2022-09-01T10:28:05;23.50;83.10
36654;DHT22;22650;49.350;20.898;2022-09-01T10:30:45;23.60;82.30
36654;DHT22;22650;49.350;20.898;2022-09-01T10:33:20;23.70;80.90
36654;DHT22;22650;49.350;20.898;2022-09-01T10:35:54;23.70;80.20
36654;DHT22;22650;49.350;20.898;2022-09-01T10:38:28;23.60;80.70
36654;DHT22;22650;49.350;20.898;2022-09-01T10:41:02;23.50;81.50
36654;DHT22;22650;49.350;20.898;2022-09-01T10:43:46;23.20;80.90
36654;DHT22;22650;49.350;20.898;2022-09-01T10:46:42;23.30;83.70
36654;DHT22;22650;49.350;20.898;2022-09-01T10:55:25;23.70;77.30
36654;DHT22;22650;49.350;20.898;2022-09-01T10:58:13;23.70;79.40
36654;DHT22;22650;49.350;20.898;2022-09-01T11:01:11;23.80;78.00
36654;DHT22;22650;49.350;20.898;2022-09-01T11:04:08;24.00;80.70
36654;DHT22;22650;49.350;20.898;2022-09-01T11:09:44;24.50;79.20
36654;DHT22;22650;49.350;20.898;2022-09-01T11:12:47;24.60;79.30
36654;DHT22;22650;49.350;20.898;2022-09-01T11:15:43;24.50;73.70
36654;DHT22;22650;49.350;20.898;2022-09-01T11:18:23;24.20;73.70
36654;DHT22;22650;49.350;20.898;2022-09-01T11:27:11;23.70;77.30
36654;DHT22;22650;49.350;20.898;2022-09-01T11:29:51;23.50;78.70
36654;DHT22;22650;49.350;20.898;2022-09-01T11:32:31;23.30;78.70
36654;DHT22;22650;49.350;20.898;2022-09-01T11:35:13;23.10;78.90
36654;DHT22;22650;49.350;20.898;2022-09-01T11:37:54;23.00;80.10
36654;DHT22;22650;49.350;20.898;2022-09-01T11:40:32;22.90;80.00
36654;DHT22;22650;49.350;20.898;2022-09-01T11:43:11;22.90;80.80
36654;DHT22;22650;49.350;20.898;2022-09-01T11:45:57;22.80;78.90
36654;DHT22;22650;49.350;20.898;2022-09-01T11:48:35;22.70;78.40
36654;DHT22;22650;49.350;20.898;2022-09-01T11:51:09;22.70;80.30
36654;DHT22;22650;49.350;20.898;2022-09-01T11:53:46;22.70;80.20
36654;DHT22;22650;49.350;20.898;2022-09-01T11:56:24;22.50;79.30
36654;DHT22;22650;49.350;20.898;2022-09-01T11:59:02;22.50;79.70
36654;DHT22;22650;49.350;20.898;2022-09-01T12:01:38;22.40;79.00
36654;DHT22;22650;49.350;20.898;2022-09-01T12:04:20;22.30;78.20
36654;DHT22;22650;49.350;20.898;2022-09-01T12:06:57;22.30;78.60
36654;DHT22;22650;49.350;20.898;2022-09-01T12:09:36;22.20;78.20
36654;DHT22;22650;49.350;20.898;2022-09-01T12:12:31;22.20;77.70
36654;DHT22;22650;49.350;20.898;2022-09-01T12:15:09;22.40;79.80
36654;DHT22;22650;49.350;20.898;2022-09-01T12:17:44;22.70;81.80
36654;DHT22;22650;49.350;20.898;2022-09-01T12:20:23;23.00;79.10
36654;DHT22;22650;49.350;20.898;2022-09-01T12:23:00;23.30;79.20
36654;DHT22;22650;49.350;20.898;2022-09-01T12:25:34;23.70;80.30
36654;DHT22;22650;49.350;20.898;2022-09-01T12:28:08;23.80;75.90
36654;DHT22;22650;49.350;20.898;2022-09-01T12:30:43;23.80;73.30
36654;DHT22;22650;49.350;20.898;2022-09-01T12:33:17;23.90;69.70
36654;DHT22;22650;49.350;20.898;2022-09-01T12:36:12;24.10;72.00
36654;DHT22;22650;49.350;20.898;2022-09-01T12:38:45;24.30;70.70
36654;DHT22;22650;49.350;20.898;2022-09-01T12:41:30;24.40;72.10
36654;DHT22;22650;49.350;20.898;2022-09-01T12:44:28;24.70;72.90
36654;DHT22;22650;49.350;20.898;2022-09-01T12:47:05;25.00;68.00
36654;DHT22;22650;49.350;20.898;2022-09-01T12:49:40;25.00;68.70
36654;DHT22;22650;49.350;20.898;2022-09-01T12:52:23;25.10;68.40
36654;DHT22;22650;49.350;20.898;2022-09-01T12:55:11;25.00;67.80
36654;DHT22;22650;49.350;20.898;2022-09-01T12:58:08;25.00;67.80
36654;DHT22;22650;49.350;20.898;2022-09-01T13:00:55;25.10;68.10
36654;DHT22;22650;49.350;20.898;2022-09-01T13:03:31;25.10;66.30
36654;DHT22;22650;49.350;20.898;2022-09-01T13:06:06;25.40;67.60
36654;DHT22;22650;49.350;20.898;2022-09-01T13:08:40;25.30;64.20
36654;DHT22;22650;49.350;20.898;2022-09-01T13:11:17;25.20;63.70
36654;DHT22;22650;49.350;20.898;2022-09-01T13:13:51;25.00;62.00
36654;DHT22;22650;49.350;20.898;2022-09-01T13:16:24;24.80;63.80
36654;DHT22;22650;49.350;20.898;2022-09-01T13:18:59;24.70;64.00
36654;DHT22;22650;49.350;20.898;2022-09-01T13:21:53;24.50;64.90
36654;DHT22;22650;49.350;20.898;2022-09-01T13:24:26;24.30;64.90
36654;DHT22;22650;49.350;20.898;2022-09-01T13:27:02;24.10;64.80
36654;DHT22;22650;49.350;20.898;2022-09-01T13:29:53;24.00;66.10
36654;DHT22;22650;49.350;20.898;2022-09-01T13:32:26;23.90;67.70
36654;DHT22;22650;49.350;20.898;2022-09-01T13:35:01;23.70;66.70
36654;DHT22;22650;49.350;20.898;2022-09-01T13:37:35;23.60;67.00
36654;DHT22;22650;49.350;20.898;2022-09-01T13:40:09;23.40;68.00
36654;DHT22;22650;49.350;20.898;2022-09-01T13:42:48;23.40;68.10
36654;DHT22;22650;49.350;20.898;2022-09-01T13:45:23;23.30;68.90
36654;DHT22;22650;49.350;20.898;2022-09-01T13:47:57;23.20;68.80
36654;DHT22;22650;49.350;20.898;2022-09-01T13:50:50;23.30;69.90
36654;DHT22;22650;49.350;20.898;2022-09-01T13:53:44;23.20;69.90
36654;DHT22;22650;49.350;20.898;2022-09-01T13:56:18;23.20;70.30
36654;DHT22;22650;49.350;20.898;2022-09-01T13:58:51;23.20;70.90
36654;DHT22;22650;49.350;20.898;2022-09-01T14:01:25;23.10;70.80
36654;DHT22;22650;49.350;20.898;2022-09-01T14:03:59;23.10;70.80
36654;DHT22;22650;49.350;20.898;2022-09-01T14:06:40;22.90;71.00
36654;DHT22;22650;49.350;20.898;2022-09-01T14:09:15;22.70;70.80
36654;DHT22;22650;49.350;20.898;2022-09-01T14:11:51;22.50;70.80
36654;DHT22;22650;49.350;20.898;2022-09-01T14:14:25;22.30;71.20
36654;DHT22;22650;49.350;20.898;2022-09-01T14:17:18;22.10;72.00
36654;DHT22;22650;49.350;20.898;2022-09-01T14:19:52;22.00;72.60
36654;DHT22;22650;49.350;20.898;2022-09-01T14:22:27;22.00;72.80
36654;DHT22;22650;49.350;20.898;2022-09-01T14:25:03;22.10;73.30
36654;DHT22;22650;49.350;20.898;2022-09-01T14:27:41;22.00;71.90
36654;DHT22;22650;49.350;20.898;2022-09-01T14:30:18;22.00;71.50
36654;DHT22;22650;49.350;20.898;2022-09-01T14:32:52;21.90;70.90
36654;DHT22;22650;49.350;20.898;2022-09-01T14:35:25;21.90;70.70
36654;DHT22;22650;49.350;20.898;2022-09-01T14:38:01;21.80;70.20
36654;DHT22;22650;49.350;20.898;2022-09-01T14:40:37;21.90;70.40
36654;DHT22;22650;49.350;20.898;2022-09-01T14:43:11;21.90;70.50
36654;DHT22;22650;49.350;20.898;2022-09-01T14:45:45;21.90;69.90
36654;DHT22;22650;49.350;20.898;2022-09-01T14:48:19;21.90;70.30
36654;DHT22;22650;49.350;20.898;2022-09-01T14:50:52;21.90;69.80
36654;DHT22;22650;49.350;20.898;2022-09-01T14:53:28;21.70;69.20
36654;DHT22;22650;49.350;20.898;2022-09-01T14:56:02;21.60;69.00
36654;DHT22;22650;49.350;20.898;2022-09-01T14:58:36;21.60;70.40
36654;DHT22;22650;49.350;20.898;2022-09-01T15:01:10;21.60;70.50
36654;DHT22;22650;49.350;20.898;2022-09-01T15:04:03;21.70;71.10
36654;DHT22;22650;49.350;20.898;2022-09-01T15:06:37;21.60;72.10
36654;DHT22;22650;49.350;20.898;2022-09-01T15:09:11;21.60;71.30
36654;DHT22;22650;49.350;20.898;2022-09-01T15:11:50;21.60;71.60
36654;DHT22;22650;49.350;20.898;2022-09-01T15:14:23;21.70;71.90
36654;DHT22;22650;49.350;20.898;2022-09-01T15:16:57;21.60;71.50
36654;DHT22;22650;49.350;20.898;2022-09-01T15:19:30;21.60;70.50
36654;DHT22;22650;49.350;20.898;2022-09-01T15:22:04;21.50;70.10
36654;DHT22;22650;49.350;20.898;2022-09-01T15:24:39;21.40;70.10
36654;DHT22;22650;49.350;20.898;2022-09-01T15:27:12;21.30;70.20
36654;DHT22;22650;49.350;20.898;2022-09-01T15:29:46;21.20;70.30
36654;DHT22;22650;49.350;20.898;2022-09-01T15:32:24;21.20;70.40
36654;DHT22;22650;49.350;20.898;2022-09-01T15:34:59;21.00;70.70
36654;DHT22;22650;49.350;20.898;2022-09-01T15:37:32;20.90;70.90
36654;DHT22;22650;49.350;20.898;2022-09-01T15:40:08;20.80;71.70
36654;DHT22;22650;49.350;20.898;2022-09-01T15:42:42;20.70;72.40
36654;DHT22;22650;49.350;20.898;2022-09-01T15:45:18;20.70;72.90
36654;DHT22;22650;49.350;20.898;2022-09-01T15:47:53;20.70;72.60
36654;DHT22;22650;49.350;20.898;2022-09-01T15:50:26;20.60;73.00
36654;DHT22;22650;49.350;20.898;2022-09-01T15:53:04;20.50;72.60
36654;DHT22;22650;49.350;20.898;2022-09-01T15:55:42;20.50;73.90
36654;DHT22;22650;49.350;20.898;2022-09-01T15:58:17;20.40;73.60
36654;DHT22;22650;49.350;20.898;2022-09-01T16:00:51;20.40;73.40
36654;DHT22;22650;49.350;20.898;2022-09-01T16:03:24;20.40;73.60
36654;DHT22;22650;49.350;20.898;2022-09-01T16:05:58;20.40;74.10
36654;DHT22;22650;49.350;20.898;2022-09-01T16:08:33;20.40;73.90
36654;DHT22;22650;49.350;20.898;2022-09-01T16:11:08;20.40;73.10
36654;DHT22;22650;49.350;20.898;2022-09-01T16:13:43;20.40;73.80
36654;DHT22;22650;49.350;20.898;2022-09-01T16:16:28;20.40;73.10
36654;DHT22;22650;49.350;20.898;2022-09-01T16:19:18;20.30;72.50
36654;DHT22;22650;49.350;20.898;2022-09-01T16:22:00;20.20;73.40
36654;DHT22;22650;49.350;20.898;2022-09-01T16:24:40;20.10;72.40
36654;DHT22;22650;49.350;20.898;2022-09-01T16:27:17;20.00;72.90
36654;DHT22;22650;49.350;20.898;2022-09-01T16:29:54;19.80;71.70
36654;DHT22;22650;49.350;20.898;2022-09-01T16:32:28;19.70;71.80
36654;DHT22;22650;49.350;20.898;2022-09-01T16:35:04;19.50;72.10
36654;DHT22;22650;49.350;20.898;2022-09-01T16:37:44;19.30;72.10
36654;DHT22;22650;49.350;20.898;2022-09-01T16:40:30;19.20;73.30
36654;DHT22;22650;49.350;20.898;2022-09-01T16:43:15;19.10;73.20